Pagrindinis puslapis
METAR-TAF:

METAR-TAF

Oro uostai :

Mykolajivas, Ukraina

platuma: 47-03-29N, ilguma: 031-55-15E, Aukštis: 56 m

Dabartinis oras

Ataskaita buvo paskelbta 15 valandos ir 28 minutes, ne 03:00 UTC
Vėjas 6 kt iš Šiaurės/Šiaurės Vakarų
Temperatūra 11°C
Drėgmė 71%
Slėgis 1025 hPa
Matomumas 10 km arba daugiau
nėra debesų žemiau 1500 m ir nėra kamuolinių lietaus debesų

METAR: UKON 150300Z 34003MPS CAVOK 11/06 Q1025 NOSIG

Laikas: 21:28 (18:28 UTC)

Prognozė

Ataskaita buvo paskelbta 31 valandos ir 26 minutes, ne 11:02 UTC
Prognozė galioja nuo 14 metu 12 UTC su 14 metu 21 UTC
Vėjas 16 kt iš Šiaurės/Šiaurės Vakarų su gūsio iki 29 kt
Matomumas 10 km arba daugiau
Išsisklaidę debesys ne aukštis 700 ft
Su prošvaistėmis ne aukštis 2500 ft, Liūtiniai kamuoliniai debesys.

TAF: UKON 141102Z 1412/1421 34008G15MPS 9999 SCT007 BKN025CB TX28/1412Z TN21/1421Z

Orai ataskaitas ir orų prognozės (METAR, TAF).

turimą stotys yra geltonos ir raudonos taškus žemėlapyje.

Perkelti pele per norėdami pamatyti stoties vardą.

Tada spustelėkite, norėdami matyti oro stebėjimo ir prognozės.

Norėdami pakeisti žemėlapį: spustelėkite ant žalios mygtukų su juodo kryžiaus žemyn,; žalią mygtuką su brūkšneliu, jei norite nutolinti; arba žalių rodyklių gretimoms žemėlapius.


METAR-TAF: